Terminal Aerodrome Forecast
Issued by NWS

Home | Current Version | Previous Version | Text Only | Print | Product List | Glossary On
Versions: 1 2 3 4 5 6 7 8 9 10 11 12 13 14 15
958
FTUS41 KPBZ 172329
TAFFKL
TAF
KFKL 172329Z 1800/1824 24007KT P6SM VCSH OVC025
     FM180100 24007KT P6SM VCSH OVC015
     FM180300 24007KT P6SM OVC008
     FM180500 25008KT P6SM VCSH OVC003
     FM181500 27009KT P6SM VCSH OVC008
      AMD NOT SKED=

USA.gov is the U.S. government's official web portal to all federal, state and local government web resources and services.